Time;durP1;ratioP1;P1;durP2;ratioP2;P2;SDS_P1;SDS_P2;PMS_P1;PMS_P2;Temp;Humidity;BMP_temperature;BMP_pressure;BME280_temperature;BME280_humidity;BME280_pressure;Samples;Min_cycle;Max_cycle;Signal;HPM_P1;HPM_P2
2021/08/11 00:01:12;;;;;;;2.53;0.90;;;16.00;80.30;;;;;;5103653;28;20093;-74
2021/08/11 00:03:40;;;;;;;3.03;1.40;;;16.00;80.40;;;;;;5074376;28;20043;-74
2021/08/11 00:06:07;;;;;;;2.78;1.13;;;16.00;80.50;;;;;;5107013;28;20118;-74
2021/08/11 00:08:34;;;;;;;3.65;1.27;;;15.90;80.50;;;;;;5112349;28;20567;-74
2021/08/11 00:11:01;;;;;;;4.53;1.23;;;15.90;80.50;;;;;;5092215;28;20100;-74
2021/08/11 00:13:28;;;;;;;2.53;1.38;;;15.90;80.60;;;;;;5110680;28;20502;-74
2021/08/11 00:15:55;;;;;;;3.08;1.05;;;15.90;80.70;;;;;;5091588;28;20039;-74
2021/08/11 00:18:22;;;;;;;3.83;1.10;;;15.80;80.70;;;;;;5109802;28;20051;-74
2021/08/11 00:20:50;;;;;;;3.17;1.30;;;15.80;80.80;;;;;;5111749;28;20043;-74
2021/08/11 00:23:17;;;;;;;2.25;1.00;;;15.80;80.80;;;;;;5110752;28;20111;-74
2021/08/11 00:25:44;;;;;;;3.15;1.20;;;15.80;80.90;;;;;;5110550;28;20093;-73
2021/08/11 00:28:11;;;;;;;3.60;1.38;;;15.80;80.90;;;;;;5106788;28;20442;-73
2021/08/11 00:30:38;;;;;;;3.50;1.13;;;15.70;80.90;;;;;;5112969;28;20040;-73
2021/08/11 00:33:05;;;;;;;2.55;1.00;;;15.70;81.00;;;;;;5110915;28;20042;-74
2021/08/11 00:35:33;;;;;;;3.88;1.00;;;15.70;81.10;;;;;;5104379;28;20047;-75
2021/08/11 00:38:00;;;;;;;2.03;1.00;;;15.70;81.20;;;;;;5092882;28;20036;-75
2021/08/11 00:40:30;;;;;;;3.00;1.10;;;15.70;81.10;;;;;;5093902;28;20097;-76
2021/08/11 00:43:18;;;;;;;2.28;1.02;;;15.60;81.10;;;;;;5110441;28;20112;-83
2021/08/11 00:45:48;;;;;;;2.78;0.88;;;15.60;81.30;;;;;;5082421;28;20077;-81
2021/08/11 00:48:20;;;;;;;2.45;1.05;;;15.60;81.30;;;;;;5087863;28;20044;-81
2021/08/11 00:51:09;;;;;;;2.38;1.23;;;15.60;81.40;;;;;;5083895;28;20047;-79
2021/08/11 00:58:14;;;;;;;3.42;1.10;;;15.50;81.50;;;;;;5108779;28;20031;-79
2021/08/11 01:00:49;;;;;;;2.38;0.98;;;15.40;81.60;;;;;;5082039;28;20044;-82
2021/08/11 01:03:22;;;;;;;3.97;1.33;;;15.40;81.60;;;;;;5116420;27;20406;-78
2021/08/11 01:05:55;;;;;;;2.55;1.20;;;15.40;81.70;;;;;;5092267;28;20135;-76
2021/08/11 01:08:24;;;;;;;3.15;1.23;;;15.40;81.70;;;;;;5108143;28;20088;-74
2021/08/11 01:10:53;;;;;;;2.70;1.23;;;15.40;81.70;;;;;;5106557;28;20071;-75
2021/08/11 01:13:21;;;;;;;3.45;1.70;;;15.30;81.80;;;;;;5101771;28;20040;-74
2021/08/11 01:15:48;;;;;;;3.28;1.30;;;15.30;81.80;;;;;;5096666;27;20062;-75
2021/08/11 01:18:21;;;;;;;2.60;1.30;;;15.30;81.80;;;;;;5115221;27;20055;-75
2021/08/11 01:20:57;;;;;;;3.60;1.30;;;15.30;81.80;;;;;;5110891;28;20051;-75
2021/08/11 01:23:29;;;;;;;4.05;1.00;;;15.30;81.80;;;;;;5114477;28;20046;-75
2021/08/11 01:26:06;;;;;;;3.35;1.17;;;15.30;81.90;;;;;;5102540;28;20484;-74
2021/08/11 01:28:43;;;;;;;2.42;1.13;;;15.30;82.00;;;;;;5121774;27;20051;-76
2021/08/11 01:31:15;;;;;;;3.95;1.30;;;15.20;81.90;;;;;;5113420;27;20047;-76
2021/08/11 01:34:12;;;;;;;2.47;1.00;;;15.20;82.00;;;;;;5101515;28;20060;-76
2021/08/11 01:36:45;;;;;;;2.47;1.10;;;15.20;82.10;;;;;;5102391;28;20051;-77
2021/08/11 01:39:42;;;;;;;2.88;1.35;;;15.10;82.10;;;;;;5085996;28;20092;-76
2021/08/11 01:42:28;;;;;;;3.53;1.27;;;15.10;82.10;;;;;;5111069;27;20054;-76
2021/08/11 01:45:27;;;;;;;4.10;1.27;;;15.10;82.30;;;;;;5100756;28;20044;-76
2021/08/11 01:48:07;;;;;;;3.17;0.95;;;15.00;82.10;;;;;;5110283;28;20047;-76
2021/08/11 01:50:45;;;;;;;2.58;1.23;;;15.00;82.30;;;;;;5120732;27;20048;-77
2021/08/11 01:53:19;;;;;;;3.95;1.20;;;15.00;82.40;;;;;;5106612;28;20079;-76
2021/08/11 01:55:53;;;;;;;3.35;1.42;;;15.00;82.40;;;;;;5112763;27;20408;-76
2021/08/11 01:58:25;;;;;;;3.63;1.50;;;15.00;82.50;;;;;;5105135;27;20475;-77
2021/08/11 02:01:05;;;;;;;2.35;1.05;;;15.00;82.50;;;;;;5112108;28;20040;-76
2021/08/11 02:03:34;;;;;;;2.50;1.23;;;14.90;82.50;;;;;;5106439;28;20111;-76
2021/08/11 02:06:02;;;;;;;1.92;0.90;;;14.90;82.60;;;;;;5104058;27;20044;-76
2021/08/11 02:08:32;;;;;;;2.65;1.27;;;14.90;82.60;;;;;;5104967;28;20432;-76
2021/08/11 02:11:01;;;;;;;4.72;1.95;;;14.90;82.60;;;;;;5109064;28;20453;-76
2021/08/11 02:13:31;;;;;;;3.20;1.40;;;14.90;82.60;;;;;;5109399;28;20090;-76
2021/08/11 02:15:59;;;;;;;3.65;1.17;;;14.80;82.60;;;;;;5106713;28;20505;-76
2021/08/11 02:18:26;;;;;;;2.88;1.20;;;14.80;82.70;;;;;;5103769;28;20135;-77
2021/08/11 02:20:58;;;;;;;;;;;14.80;82.80;;;;;;5097257;28;20055;-76
2021/08/11 02:23:26;;;;;;;1.70;0.90;;;14.70;82.70;;;;;;5120352;27;19957;-77
2021/08/11 02:26:39;;;;;;;2.53;1.10;;;14.70;82.80;;;;;;5098672;28;20092;-77
2021/08/11 02:29:20;;;;;;;2.60;1.13;;;14.70;82.70;;;;;;5112413;28;20126;-76
2021/08/11 02:31:58;;;;;;;2.47;1.00;;;14.70;82.90;;;;;;5115799;28;20111;-76
2021/08/11 02:34:43;;;;;;;2.38;0.85;;;14.70;82.90;;;;;;5112407;28;20126;-77
2021/08/11 02:37:34;;;;;;;2.45;1.00;;;14.60;83.50;;;;;;5123878;27;20054;-76
2021/08/11 02:40:46;;;;;;;3.45;1.35;;;14.60;82.90;;;;;;5106762;27;20383;-76
2021/08/11 02:43:27;;;;;;;2.28;0.90;;;14.60;82.80;;;;;;5065210;28;20040;-76
2021/08/11 02:45:59;;;;;;;2.50;0.90;;;14.60;83.00;;;;;;5110196;27;20418;-76
2021/08/11 02:48:29;;;;;;;3.80;1.40;;;14.60;83.10;;;;;;5112956;28;20061;-76
2021/08/11 02:50:59;;;;;;;3.75;0.95;;;14.50;83.10;;;;;;5112043;28;20499;-76
2021/08/11 02:53:28;;;;;;;5.28;1.10;;;14.60;83.10;;;;;;5112901;28;20047;-76
2021/08/11 02:55:55;;;;;;;2.38;0.93;;;14.50;83.10;;;;;;5095159;28;20035;-76
2021/08/11 02:58:23;;;;;;;2.45;1.00;;;14.50;83.10;;;;;;5104610;28;20137;-76
2021/08/11 03:00:51;;;;;;;2.50;1.20;;;14.50;83.20;;;;;;5095615;28;20040;-76
2021/08/11 03:03:19;;;;;;;4.10;1.48;;;14.50;83.20;;;;;;5075128;28;20044;-76
2021/08/11 03:05:48;;;;;;;2.40;1.00;;;14.50;83.20;;;;;;5115662;27;20043;-77
2021/08/11 03:08:16;;;;;;;4.15;1.45;;;14.50;83.20;;;;;;5114378;28;20039;-77
2021/08/11 03:10:43;;;;;;;1.77;0.80;;;14.50;83.20;;;;;;5094950;28;20071;-76
2021/08/11 03:13:13;;;;;;;3.05;1.58;;;14.50;83.30;;;;;;5092330;28;20098;-76
2021/08/11 03:15:42;;;;;;;4.25;1.17;;;14.50;83.30;;;;;;5111265;28;20039;-76
2021/08/11 03:18:10;;;;;;;2.65;1.05;;;14.40;83.30;;;;;;5112262;28;20055;-77
2021/08/11 03:20:38;;;;;;;2.10;1.08;;;14.50;83.30;;;;;;5080470;28;20127;-77
2021/08/11 03:23:07;;;;;;;3.30;1.10;;;14.40;83.30;;;;;;5094590;28;20040;-77
2021/08/11 03:25:36;;;;;;;4.35;1.35;;;14.40;83.30;;;;;;5111866;28;20032;-76
2021/08/11 03:28:03;;;;;;;2.17;0.95;;;14.40;83.30;;;;;;5115968;28;20081;-77
2021/08/11 03:30:33;;;;;;;2.55;1.15;;;14.40;83.30;;;;;;5112289;28;20101;-76
2021/08/11 03:33:00;;;;;;;3.42;1.50;;;14.40;83.30;;;;;;5099110;28;20043;-76
2021/08/11 03:35:27;;;;;;;5.88;1.45;;;14.40;83.30;;;;;;5082672;28;20139;-77
2021/08/11 03:37:54;;;;;;;3.55;1.38;;;14.40;83.30;;;;;;5091416;28;20066;-76
2021/08/11 03:40:22;;;;;;;2.88;1.27;;;14.40;83.40;;;;;;5103423;28;20040;-76
2021/08/11 03:42:49;;;;;;;3.30;1.50;;;14.40;83.40;;;;;;5110982;28;20131;-77
2021/08/11 03:45:18;;;;;;;2.92;1.70;;;14.40;83.40;;;;;;5112271;27;20513;-76
2021/08/11 03:47:45;;;;;;;3.53;1.48;;;14.40;83.50;;;;;;5111245;28;20761;-76
2021/08/11 03:50:14;;;;;;;2.35;1.23;;;14.40;83.60;;;;;;5096635;28;20422;-76
2021/08/11 03:52:43;;;;;;;3.20;1.45;;;14.40;83.60;;;;;;5095775;28;20131;-76
2021/08/11 03:55:13;;;;;;;3.35;1.52;;;14.30;83.60;;;;;;5111962;28;20035;-76
2021/08/11 03:57:41;;;;;;;4.28;1.50;;;14.30;83.60;;;;;;5095244;27;20491;-77
2021/08/11 04:00:09;;;;;;;3.33;1.65;;;14.30;83.60;;;;;;5093917;28;20032;-76
2021/08/11 04:02:42;;;;;;;2.72;1.40;;;14.30;83.60;;;;;;5111055;27;20048;-76
2021/08/11 04:05:09;;;;;;;3.42;1.85;;;14.30;83.70;;;;;;5112528;27;20100;-76
2021/08/11 04:07:36;;;;;;;2.63;1.25;;;14.30;83.70;;;;;;5113300;28;20032;-76
2021/08/11 04:10:06;;;;;;;2.67;1.10;;;14.30;83.80;;;;;;5112609;28;20130;-76
2021/08/11 04:12:33;;;;;;;4.55;1.20;;;14.30;83.80;;;;;;5113203;28;20070;-77
2021/08/11 04:15:01;;;;;;;3.15;1.30;;;14.30;83.80;;;;;;5111662;28;20035;-76
2021/08/11 04:17:28;;;;;;;2.28;1.05;;;14.20;83.70;;;;;;5112315;28;20135;-76
2021/08/11 04:19:56;;;;;;;2.35;1.30;;;14.30;83.70;;;;;;5119851;28;20050;-76
2021/08/11 04:22:23;;;;;;;3.05;1.45;;;14.20;84.30;;;;;;5113606;28;20050;-77
2021/08/11 04:24:50;;;;;;;3.33;1.52;;;14.20;83.70;;;;;;5114077;28;20418;-77
2021/08/11 04:27:17;;;;;;;2.92;1.38;;;14.20;83.80;;;;;;5077148;28;20046;-76
2021/08/11 04:29:44;;;;;;;4.10;1.73;;;14.20;83.80;;;;;;5112183;28;20054;-76
2021/08/11 04:32:11;;;;;;;3.15;1.42;;;14.20;83.80;;;;;;5111434;28;20056;-76
2021/08/11 04:34:38;;;;;;;3.33;1.52;;;14.20;83.80;;;;;;5110831;28;20051;-76
2021/08/11 04:37:06;;;;;;;2.33;1.33;;;14.30;83.80;;;;;;5111572;28;20043;-76
2021/08/11 04:39:33;;;;;;;3.22;1.38;;;14.30;83.80;;;;;;5112551;28;20057;-76
2021/08/11 04:42:00;;;;;;;2.90;1.35;;;14.30;83.80;;;;;;5112194;28;20113;-76
2021/08/11 04:44:27;;;;;;;3.40;1.33;;;14.30;83.70;;;;;;5116949;28;20076;-76
2021/08/11 04:46:55;;;;;;;3.00;1.40;;;14.40;83.70;;;;;;5121160;27;20044;-76
2021/08/11 04:49:22;;;;;;;2.88;1.30;;;14.50;83.60;;;;;;5099034;27;20039;-76
2021/08/11 04:51:49;;;;;;;3.33;1.63;;;14.50;83.50;;;;;;5126035;27;20511;-76
2021/08/11 04:54:16;;;;;;;3.20;1.67;;;14.60;83.40;;;;;;5120589;27;20047;-76
2021/08/11 04:56:43;;;;;;;3.55;1.92;;;14.70;83.40;;;;;;5115044;28;20058;-76
2021/08/11 04:59:10;;;;;;;4.13;2.00;;;14.80;83.30;;;;;;5116152;28;20047;-77
2021/08/11 05:01:37;;;;;;;3.05;1.83;;;14.90;83.20;;;;;;5121809;27;20047;-77
2021/08/11 05:04:05;;;;;;;3.13;1.65;;;15.00;83.60;;;;;;5121932;27;20492;-76
2021/08/11 05:06:32;;;;;;;4.10;2.10;;;15.00;82.90;;;;;;5118635;27;20499;-76
2021/08/11 05:08:59;;;;;;;5.85;2.47;;;15.10;82.80;;;;;;5115154;28;20036;-77
2021/08/11 05:11:26;;;;;;;6.53;2.95;;;15.10;82.80;;;;;;5115363;28;20048;-76
2021/08/11 05:13:53;;;;;;;5.80;2.60;;;15.20;82.80;;;;;;5115354;28;20122;-76
2021/08/11 05:16:23;;;;;;;7.68;3.10;;;15.30;82.80;;;;;;5112943;27;20376;-76
2021/08/11 05:18:51;;;;;;;4.95;2.72;;;15.30;82.80;;;;;;5120545;27;20505;-76
2021/08/11 05:21:18;;;;;;;8.85;2.70;;;15.40;82.70;;;;;;5123163;27;20442;-76
2021/08/11 05:23:45;;;;;;;4.15;2.20;;;15.50;82.70;;;;;;5118822;27;20055;-76
2021/08/11 05:26:11;;;;;;;8.68;3.33;;;15.60;82.70;;;;;;5114418;27;20031;-76
2021/08/11 05:28:38;;;;;;;9.45;3.28;;;15.60;82.80;;;;;;5115690;28;20050;-77
2021/08/11 05:31:05;;;;;;;8.07;3.42;;;15.70;83.30;;;;;;5107818;28;20057;-76
2021/08/11 05:33:35;;;;;;;7.82;3.33;;;15.70;83.30;;;;;;5110263;28;20104;-76
2021/08/11 05:36:03;;;;;;;6.68;2.80;;;15.80;82.80;;;;;;5114235;28;20562;-76
2021/08/11 05:38:30;;;;;;;6.72;3.22;;;15.80;82.70;;;;;;5115441;27;20047;-76
2021/08/11 05:40:59;;;;;;;8.38;3.55;;;15.90;82.80;;;;;;5115514;27;20039;-76
2021/08/11 05:43:26;;;;;;;5.60;3.20;;;16.00;82.80;;;;;;5087444;28;20040;-76
2021/08/11 05:45:53;;;;;;;6.80;3.10;;;16.10;82.80;;;;;;5114469;28;20062;-76
2021/08/11 05:48:21;;;;;;;5.45;2.85;;;16.10;82.80;;;;;;5114656;28;20035;-76
2021/08/11 05:50:48;;;;;;;5.95;2.75;;;16.20;82.80;;;;;;5108013;28;20055;-75
2021/08/11 05:53:16;;;;;;;4.80;2.83;;;16.30;82.80;;;;;;5113400;28;20047;-75
2021/08/11 05:55:43;;;;;;;6.28;3.30;;;16.30;82.80;;;;;;5114774;28;20122;-75
2021/08/11 05:58:11;;;;;;;5.28;3.00;;;16.30;82.80;;;;;;5115977;27;20047;-75
2021/08/11 06:00:38;;;;;;;5.18;2.80;;;16.40;82.90;;;;;;5113207;28;20051;-76
2021/08/11 06:03:06;;;;;;;4.75;2.60;;;16.40;82.90;;;;;;5113614;27;20496;-75
2021/08/11 06:05:41;;;;;;;6.80;3.40;;;16.40;82.90;;;;;;5112227;27;20529;-75
2021/08/11 06:08:08;;;;;;;5.20;2.85;;;16.50;82.90;;;;;;5108254;28;20051;-75
2021/08/11 06:10:35;;;;;;;5.97;2.60;;;16.60;82.90;;;;;;5112833;28;20044;-75
2021/08/11 06:13:02;;;;;;;6.22;3.03;;;16.60;82.90;;;;;;5100539;28;20464;-75
2021/08/11 06:15:29;;;;;;;5.03;2.20;;;16.70;82.80;;;;;;5112248;27;20034;-75
2021/08/11 06:17:57;;;;;;;5.72;2.85;;;16.80;82.80;;;;;;5100990;27;20502;-75
2021/08/11 06:20:24;;;;;;;5.60;3.15;;;16.80;82.80;;;;;;5113632;27;20043;-75
2021/08/11 06:22:52;;;;;;;5.53;2.97;;;16.90;82.80;;;;;;5113226;27;20457;-75
2021/08/11 06:25:20;;;;;;;5.00;2.80;;;16.90;82.80;;;;;;5099310;28;20420;-75
2021/08/11 06:27:48;;;;;;;5.38;2.25;;;16.90;82.80;;;;;;5113964;28;20105;-75
2021/08/11 06:30:15;;;;;;;4.70;2.47;;;16.90;82.80;;;;;;5108085;28;20027;-75
2021/08/11 06:32:43;;;;;;;4.00;2.28;;;16.90;82.80;;;;;;5116120;27;20046;-76
2021/08/11 06:35:11;;;;;;;4.28;2.28;;;17.00;82.90;;;;;;5111422;28;20123;-75
2021/08/11 06:37:49;;;;;;;4.93;2.90;;;17.10;82.80;;;;;;5112316;27;20031;-75
2021/08/11 06:40:18;;;;;;;5.10;2.80;;;17.20;83.30;;;;;;5112448;28;20475;-75
2021/08/11 06:42:45;;;;;;;4.38;2.03;;;17.30;82.50;;;;;;5112127;27;20135;-75
2021/08/11 06:45:16;;;;;;;5.93;3.58;;;17.40;82.30;;;;;;5111997;28;20050;-75
2021/08/11 06:47:44;;;;;;;4.60;2.17;;;17.50;82.10;;;;;;5109485;28;20043;-75
2021/08/11 06:50:13;;;;;;;4.05;2.58;;;17.60;82.00;;;;;;5111887;28;20096;-75
2021/08/11 06:52:40;;;;;;;4.65;2.42;;;17.60;81.90;;;;;;5120580;27;20036;-75
2021/08/11 06:55:10;;;;;;;4.07;2.35;;;17.70;81.80;;;;;;5113043;28;20043;-75
2021/08/11 06:57:37;;;;;;;4.60;2.80;;;17.80;81.70;;;;;;5095108;28;20480;-75
2021/08/11 07:00:05;;;;;;;5.18;3.30;;;17.90;81.50;;;;;;5090713;28;20093;-75
2021/08/11 07:02:32;;;;;;;3.28;1.73;;;18.00;81.40;;;;;;5109750;28;20514;-75
2021/08/11 07:04:59;;;;;;;4.70;2.13;;;18.10;81.40;;;;;;5110648;28;20035;-75
2021/08/11 07:07:26;;;;;;;6.13;3.35;;;18.20;81.20;;;;;;5112009;28;20055;-75
2021/08/11 07:09:57;;;;;;;4.57;3.15;;;18.20;81.10;;;;;;5105826;28;20430;-75
2021/08/11 07:12:24;;;;;;;4.40;2.83;;;18.30;81.20;;;;;;5110799;27;20036;-75
2021/08/11 07:14:52;;;;;;;4.47;2.58;;;18.30;81.00;;;;;;5096608;28;20104;-75
2021/08/11 07:17:20;;;;;;;3.80;1.73;;;18.40;81.10;;;;;;5110827;28;20047;-76
2021/08/11 07:19:47;;;;;;;3.78;1.85;;;18.40;81.00;;;;;;5111652;28;20048;-75
2021/08/11 07:22:14;;;;;;;4.35;1.73;;;18.60;81.00;;;;;;5094475;28;20458;-75
2021/08/11 07:24:41;;;;;;;5.45;2.30;;;18.70;80.80;;;;;;5094900;28;20035;-75
2021/08/11 07:27:08;;;;;;;3.65;2.13;;;18.80;80.60;;;;;;5110277;28;20039;-76
2021/08/11 07:29:36;;;;;;;5.43;2.97;;;18.90;80.40;;;;;;5111419;28;20122;-75
2021/08/11 07:32:03;;;;;;;5.15;3.30;;;19.00;80.30;;;;;;5107345;27;20055;-75
2021/08/11 07:34:30;;;;;;;5.00;2.78;;;19.00;80.20;;;;;;5108936;27;20114;-75
2021/08/11 07:36:57;;;;;;;5.78;2.28;;;19.10;80.10;;;;;;5100197;28;20122;-75
2021/08/11 07:39:25;;;;;;;5.72;3.03;;;19.20;80.10;;;;;;5106429;28;20101;-75
2021/08/11 07:41:52;;;;;;;6.07;3.53;;;19.20;80.00;;;;;;5112061;28;20058;-76
2021/08/11 07:44:19;;;;;;;6.22;3.47;;;19.30;79.90;;;;;;5110967;27;20526;-75
2021/08/11 07:46:46;;;;;;;4.97;2.00;;;19.30;79.90;;;;;;5111346;28;20480;-75
2021/08/11 07:49:13;;;;;;;4.53;2.63;;;19.40;79.90;;;;;;5092997;28;20550;-75
2021/08/11 07:51:40;;;;;;;6.28;2.92;;;19.50;79.80;;;;;;5111669;28;20051;-75
2021/08/11 07:54:07;;;;;;;3.00;1.67;;;19.60;79.60;;;;;;5094088;28;20044;-76
2021/08/11 07:56:34;;;;;;;3.75;2.53;;;19.60;79.40;;;;;;5090536;28;20418;-76
2021/08/11 07:59:01;;;;;;;5.63;3.45;;;19.70;79.40;;;;;;5105675;27;20540;-76
2021/08/11 08:01:28;;;;;;;5.47;3.00;;;19.80;79.20;;;;;;5096404;28;20439;-76
2021/08/11 08:03:55;;;;;;;3.53;2.22;;;19.80;79.10;;;;;;5093322;28;20122;-76
2021/08/11 08:06:22;;;;;;;4.60;2.63;;;19.80;79.00;;;;;;5090431;28;20032;-75
2021/08/11 08:08:49;;;;;;;5.25;3.28;;;20.00;79.00;;;;;;5110060;28;20039;-77
2021/08/11 08:11:16;;;;;;;7.55;3.17;;;20.10;78.80;;;;;;5111178;28;20104;-76
2021/08/11 08:13:45;;;;;;;4.95;2.58;;;20.20;78.50;;;;;;5109001;28;20043;-76
2021/08/11 08:16:15;;;;;;;5.47;2.97;;;20.30;78.40;;;;;;5111575;28;20040;-77
2021/08/11 08:18:45;;;;;;;4.93;2.70;;;20.40;78.10;;;;;;5114680;28;20058;-77
2021/08/11 08:21:12;;;;;;;6.20;3.15;;;20.50;77.80;;;;;;5095748;28;20099;-77
2021/08/11 08:23:40;;;;;;;4.82;2.90;;;20.60;77.50;;;;;;5094678;28;20040;-77
2021/08/11 08:26:08;;;;;;;5.22;2.85;;;20.70;77.40;;;;;;5112917;28;20035;-77
2021/08/11 08:28:35;;;;;;;6.45;3.38;;;20.80;77.30;;;;;;5112297;28;20760;-77
2021/08/11 08:31:02;;;;;;;4.57;2.22;;;20.90;77.10;;;;;;5092229;28;20032;-77
2021/08/11 08:33:29;;;;;;;7.43;4.05;;;21.00;77.10;;;;;;5112289;28;20441;-76
2021/08/11 08:35:56;;;;;;;8.20;4.45;;;21.10;76.70;;;;;;5109721;28;20134;-76
2021/08/11 08:38:23;;;;;;;7.80;3.47;;;21.10;76.40;;;;;;5085304;28;20527;-76
2021/08/11 08:41:09;;;;;;;7.20;3.90;;;21.20;76.30;;;;;;5094215;28;20046;-76
2021/08/11 08:43:36;;;;;;;7.53;4.43;;;21.40;76.20;;;;;;5098895;28;20036;-76
2021/08/11 08:46:04;;;;;;;5.95;3.05;;;21.50;75.70;;;;;;5084823;28;20031;-75
2021/08/11 08:48:33;;;;;;;6.03;3.33;;;21.70;75.60;;;;;;5074942;28;20043;-75
2021/08/11 08:51:03;;;;;;;5.55;4.13;;;21.80;75.30;;;;;;5103747;28;20123;-76
2021/08/11 08:53:33;;;;;;;7.53;3.87;;;21.80;75.20;;;;;;5101922;28;20517;-75
2021/08/11 08:56:01;;;;;;;7.47;4.38;;;21.90;75.20;;;;;;5098245;28;20050;-77
2021/08/11 08:58:30;;;;;;;5.13;3.05;;;21.90;74.70;;;;;;5100111;28;20043;-77
2021/08/11 09:00:59;;;;;;;5.05;2.78;;;22.00;74.70;;;;;;5086228;28;20074;-77
2021/08/11 09:03:27;;;;;;;6.43;2.45;;;22.20;74.70;;;;;;5103945;28;20035;-77
2021/08/11 09:05:55;;;;;;;3.92;2.30;;;22.20;74.50;;;;;;5093300;28;20089;-76
2021/08/11 09:08:24;;;;;;;4.70;3.05;;;22.20;74.40;;;;;;5066982;28;20058;-77
2021/08/11 09:10:52;;;;;;;4.28;2.88;;;22.20;74.50;;;;;;5122207;27;20077;-77
2021/08/11 09:13:30;;;;;;;5.78;2.85;;;22.00;74.40;;;;;;5109635;28;20047;-79
2021/08/11 09:16:04;;;;;;;4.40;2.97;;;21.90;74.80;;;;;;5073571;28;20048;-78
2021/08/11 09:18:33;;;;;;;3.88;2.42;;;21.90;74.90;;;;;;5096768;28;20139;-76
2021/08/11 09:21:03;;;;;;;5.47;3.05;;;21.80;75.10;;;;;;5100182;28;20036;-76
2021/08/11 09:23:49;;;;;;;5.03;2.95;;;21.60;75.20;;;;;;5090836;28;20104;-76
2021/08/11 09:26:21;;;;;;;6.72;3.60;;;21.60;75.30;;;;;;5101921;28;20043;-76
2021/08/11 09:28:48;;;;;;;5.93;3.38;;;21.50;75.50;;;;;;5086180;28;20043;-77
2021/08/11 09:31:31;;;;;;;5.32;3.00;;;21.60;75.40;;;;;;5084496;28;20036;-76
2021/08/11 09:34:07;;;;;;;5.00;3.30;;;21.80;75.10;;;;;;5100225;28;20035;-76
2021/08/11 09:36:59;;;;;;;6.22;3.92;;;21.80;74.80;;;;;;5089672;28;20040;-77
2021/08/11 09:39:40;;;;;;;4.97;2.88;;;21.80;74.70;;;;;;5087201;28;20044;-77
2021/08/11 09:42:07;;;;;;;6.72;3.75;;;21.90;74.90;;;;;;5089068;28;20052;-80
2021/08/11 09:44:57;;;;;;;6.13;3.13;;;21.90;74.80;;;;;;5091548;28;20380;-79
2021/08/11 09:47:29;;;;;;;5.80;3.30;;;22.00;74.70;;;;;;5095550;28;20109;-77
2021/08/11 09:50:10;;;;;;;4.55;2.72;;;22.30;75.10;;;;;;5112837;28;20479;-76
2021/08/11 09:52:53;;;;;;;5.95;3.83;;;22.50;74.00;;;;;;5110520;28;20047;-77
2021/08/11 09:55:21;;;;;;;4.18;2.45;;;22.80;73.30;;;;;;5099021;28;20048;-76
2021/08/11 09:57:48;;;;;;;5.95;2.35;;;22.90;73.20;;;;;;5091833;28;20046;-76
2021/08/11 10:00:20;;;;;;;3.95;1.83;;;23.20;73.10;;;;;;5079893;28;20036;-76
2021/08/11 10:03:03;;;;;;;3.58;1.75;;;23.40;72.60;;;;;;5103591;28;20035;-76
2021/08/11 10:05:38;;;;;;;3.20;1.88;;;23.60;72.30;;;;;;5108978;28;20028;-76
2021/08/11 10:08:05;;;;;;;4.65;3.15;;;23.70;72.20;;;;;;5089628;28;20062;-76
2021/08/11 10:10:46;;;;;;;4.00;2.35;;;23.70;71.60;;;;;;5118068;27;20121;-77
2021/08/11 10:13:17;;;;;;;4.68;2.55;;;23.90;71.40;;;;;;5108037;28;20097;-76
2021/08/11 10:15:45;;;;;;;3.88;2.42;;;24.00;71.20;;;;;;5108154;28;20035;-76
2021/08/11 10:18:25;;;;;;;5.22;2.50;;;23.90;70.90;;;;;;5108883;28;20139;-75
2021/08/11 10:20:56;;;;;;;4.55;2.33;;;23.70;70.90;;;;;;5110924;28;20483;-76
2021/08/11 10:23:23;;;;;;;3.75;2.20;;;23.60;71.10;;;;;;5106651;28;20032;-77
2021/08/11 10:25:51;;;;;;;3.05;1.58;;;23.60;71.50;;;;;;5106661;28;20036;-76
2021/08/11 10:28:20;;;;;;;5.13;2.67;;;23.70;71.20;;;;;;5100192;28;20048;-77
2021/08/11 10:30:49;;;;;;;5.90;2.88;;;23.90;70.40;;;;;;5105616;28;20036;-77
2021/08/11 10:33:19;;;;;;;4.13;2.22;;;23.90;70.30;;;;;;5104895;28;20044;-77
2021/08/11 10:35:47;;;;;;;4.88;3.28;;;24.10;69.80;;;;;;5103494;28;20051;-77
2021/08/11 10:38:15;;;;;;;4.13;2.25;;;24.30;68.70;;;;;;5100717;28;20434;-77
2021/08/11 10:40:50;;;;;;;2.38;1.65;;;24.40;68.80;;;;;;5098767;28;20097;-78
2021/08/11 10:43:17;;;;;;;4.72;2.25;;;24.60;68.80;;;;;;5100404;28;20043;-76
2021/08/11 10:46:03;;;;;;;5.03;2.70;;;24.70;68.30;;;;;;5092454;28;20050;-75
2021/08/11 10:48:32;;;;;;;4.63;2.35;;;24.80;67.60;;;;;;5102358;28;20028;-76
2021/08/11 10:50:59;;;;;;;4.78;3.20;;;24.90;67.20;;;;;;5090151;28;20044;-76
2021/08/11 10:53:26;;;;;;;4.22;2.58;;;25.00;66.50;;;;;;5082297;28;20123;-77
2021/08/11 10:55:54;;;;;;;3.80;2.42;;;25.30;66.00;;;;;;5102346;28;20044;-78
2021/08/11 10:58:42;;;;;;;4.10;1.70;;;25.60;65.50;;;;;;5104464;27;20118;-78
2021/08/11 11:01:33;;;;;;;4.30;2.17;;;25.90;65.10;;;;;;5101274;27;20109;-78
2021/08/11 11:04:02;;;;;;;3.38;2.10;;;26.20;64.30;;;;;;5067809;28;20551;-77
2021/08/11 11:06:55;;;;;;;3.20;1.70;;;26.30;63.90;;;;;;5109837;28;20048;-77
2021/08/11 11:09:25;;;;;;;3.03;1.80;;;26.50;63.20;;;;;;5086265;28;20176;-77
2021/08/11 11:11:53;;;;;;;2.90;1.63;;;26.60;62.50;;;;;;5111384;27;20043;-77
2021/08/11 11:14:48;;;;;;;3.33;1.63;;;26.20;62.40;;;;;;5111492;27;20145;-77
2021/08/11 11:17:16;;;;;;;2.03;1.33;;;25.50;63.70;;;;;;5102978;28;20044;-78
2021/08/11 11:20:02;;;;;;;3.13;1.45;;;25.20;64.40;;;;;;5104902;28;20480;-77
2021/08/11 11:22:36;;;;;;;3.50;2.15;;;25.40;64.10;;;;;;5106991;27;20441;-77
2021/08/11 11:25:07;;;;;;;4.18;2.22;;;25.00;64.10;;;;;;5104504;28;20047;-76
2021/08/11 11:27:53;;;;;;;3.13;1.40;;;25.20;64.20;;;;;;5105969;28;20093;-76
2021/08/11 11:30:29;;;;;;;2.40;1.35;;;25.10;63.80;;;;;;5096192;28;20096;-76
2021/08/11 11:33:23;;;;;;;2.10;1.23;;;24.70;64.50;;;;;;5109763;28;20088;-76
2021/08/11 11:36:18;;;;;;;2.75;1.23;;;24.30;65.10;;;;;;5102786;27;20379;-77
2021/08/11 11:39:06;;;;;;;3.33;1.55;;;24.10;65.60;;;;;;5119914;27;20039;-76
2021/08/11 11:41:34;;;;;;;2.75;1.73;;;24.60;64.80;;;;;;5082045;28;20139;-77
2021/08/11 11:44:39;;;;;;;5.50;2.00;;;24.50;64.30;;;;;;5104101;28;20040;-77
2021/08/11 11:47:15;;;;;;;;;;;25.10;63.20;;;;;;5104058;27;20035;-77
2021/08/11 11:49:42;;;;;;;2.35;1.45;;;25.40;62.40;;;;;;5100034;28;20006;-77
2021/08/11 11:52:18;;;;;;;2.67;1.50;;;25.90;61.80;;;;;;5104793;28;20043;-77
2021/08/11 11:54:49;;;;;;;3.90;1.70;;;25.60;61.50;;;;;;5099713;28;20372;-78
2021/08/11 11:57:17;;;;;;;3.45;2.10;;;25.10;62.50;;;;;;5086459;28;20044;-77
2021/08/11 11:59:48;;;;;;;2.13;1.30;;;24.80;63.30;;;;;;5107872;27;20035;-77
2021/08/11 12:02:23;;;;;;;2.08;1.05;;;25.10;63.70;;;;;;5108772;28;20088;-77
2021/08/11 12:05:04;;;;;;;3.13;1.20;;;25.90;62.40;;;;;;5087256;28;20043;-76
2021/08/11 12:07:35;;;;;;;2.63;1.45;;;26.30;61.90;;;;;;5110103;28;20736;-77
2021/08/11 12:10:03;;;;;;;2.50;1.20;;;26.00;61.30;;;;;;5096722;28;20063;-77
2021/08/11 12:12:31;;;;;;;3.70;1.63;;;25.50;61.90;;;;;;5100897;28;20691;-78
2021/08/11 12:15:19;;;;;;;2.95;1.70;;;25.40;62.50;;;;;;5107335;28;20633;-78
2021/08/11 12:17:47;;;;;;;2.58;1.55;;;25.20;62.50;;;;;;5104602;28;20056;-77
2021/08/11 12:20:34;;;;;;;2.92;1.40;;;25.10;63.20;;;;;;5108119;28;20044;-76
2021/08/11 12:23:17;;;;;;;2.58;1.30;;;25.60;62.30;;;;;;5104274;28;20039;-76
2021/08/11 12:25:47;;;;;;;2.37;1.43;;;25.90;61.70;;;;;;5107799;28;20038;-77
2021/08/11 12:28:17;;;;;;;2.63;1.63;;;26.40;61.20;;;;;;5109825;28;20063;-77
2021/08/11 12:31:09;;;;;;;2.00;1.20;;;26.70;60.30;;;;;;5108195;28;20061;-78
2021/08/11 12:33:38;;;;;;;2.47;1.13;;;27.00;59.60;;;;;;5111803;28;20127;-77
2021/08/11 12:36:19;;;;;;;1.73;0.90;;;27.30;59.70;;;;;;5075771;28;20841;-77
2021/08/11 12:39:07;;;;;;;2.03;1.00;;;27.30;59.70;;;;;;5101681;28;20043;-78
2021/08/11 12:41:56;;;;;;;2.20;1.48;;;27.50;59.40;;;;;;5104961;28;20056;-78
2021/08/11 12:44:27;;;;;;;2.92;1.50;;;27.50;59.40;;;;;;5107644;28;20067;-77
2021/08/11 12:47:04;;;;;;;1.90;1.00;;;27.30;59.60;;;;;;5107854;28;20081;-77
2021/08/11 12:49:42;;;;;;;3.83;1.60;;;27.50;59.60;;;;;;5099979;28;20045;-76
2021/08/11 12:55:09;;;;;;;2.53;1.50;;;27.60;58.90;;;;;;5104686;28;20043;-76
2021/08/11 12:57:38;;;;;;;2.55;1.27;;;28.70;58.00;;;;;;5104100;28;20085;-75
2021/08/11 13:00:10;;;;;;;3.63;1.85;;;29.00;57.10;;;;;;5108161;28;20434;-75
2021/08/11 13:02:38;;;;;;;3.13;1.70;;;29.10;55.90;;;;;;5097703;28;20040;-75
2021/08/11 13:05:12;;;;;;;2.75;1.63;;;29.50;55.30;;;;;;5096076;28;20096;-75
2021/08/11 13:08:00;;;;;;;2.65;1.55;;;30.00;54.70;;;;;;5099100;28;20149;-75
2021/08/11 13:13:54;;;;;;;2.72;1.52;;;30.70;53.00;;;;;;5110879;28;20116;-81
2021/08/11 13:16:34;;;;;;;2.60;1.13;;;30.90;52.30;;;;;;5092568;28;20100;-79
2021/08/11 13:19:16;;;;;;;2.72;1.20;;;31.20;52.10;;;;;;5075546;28;20136;-86
2021/08/11 13:21:43;;;;;;;2.15;1.00;;;31.60;52.00;;;;;;5108203;27;20040;-88